Portada
METAR-TAF:

METAR-TAF

Aeropuertos :

Aeropuerto de Congonhas

São Paulo, São Paulo, Brasil

latitud: 23-37S, longitud: 046-39W, altitud: 803 m

Observación

El informe se hizo hace 40 minutos, a las 07:00 UTC
Viento 6 kt del sureste
Temperatura 20°C
Humedad 88%
Presión 1020 hPa
Visibilidad 10 km o más
Escasas nubes a una altura de 1000 ft
Cielo nuboso a una altura de 2500 ft

METAR: SBSP 140700Z AUTO 14006KT 9999 FEW010 BKN025 20/18 Q1020

Hora: 04:40 (07:40 UTC)

Pronóstico

El informe se hizo hace 5 horas y 35 minutos, a las 02:05 UTC
Pronóstico válido del 14 a las 06 UTC al 14 a las 18 UTC
Viento 8 kt del sur-sureste
Visibilidad: 8000 m
Cielo nuboso a una altura de 900 ft
Evolucionando progresivamente
del 14 a las 12 UTC al 14 a las 14 UTC
Visibilidad 10 km o más
Cielo nuboso a una altura de 3000 ft

TAF: SBSP 140205Z 1406/1418 16008KT 8000 BKN009 TN19/1409Z TX26/1417Z BECMG 1412/1414 9999 BKN030 RMK PGF

Observaciones y pronósticos meteorológicos de más de 4000 aeropuertos (mensajes METAR y TAF).

Los puntos amarillos y rojos representan las estaciones disponibles.

Ponga el ratón en el punto deseado para ver el nombre de la estación.

Haga clic para ver las observaciones y los pronósticos meteorológicos.

Para cambiar el mapa : haga clic en los botones verdes con una cruz de color negro para hacer un zoom, en el botón verde con un guión para alejar o en las flechas verdes para mapas adyacentes.


METAR-TAF: